Athens, Georgia
Current Conditions -  °F | °C
As of 12:51 PM on Friday 28 Nov 2014 (Local Time) from KAHN Reporting Station
Clear Clear  
Wind Chill:   Ceiling: Unl
Heat Index:   Visibility: 10mi
Dew Point: -7°   Wind: 0mph
Humidity: 36%   Direction: NA
Pressure: 30.33"   Gusts: NA
Location:  33.96°N, 83.37°W
Report Text: KAHN 281751Z 00000KT 10SM CLR 07/M07 A3033 RMK AO2 SLP277 T00721072 10078 21033 58024
Loading
Personal Weather Stations






























Interactive Weather Map New forecast layout! Learn more

10-Day Weather Forecast

Advertisements
Track Severe Weather on mobile